Date,TemperatureHighF,TemperatureAvgF,TemperatureLowF,DewpointHighF,DewpointAvgF,DewpointLowF,HumidityHigh,HumidityAvg,HumidityLow,PressureMaxIn,PressureMinIn,WindSpeedMaxMPH,WindSpeedAvgMPH,GustSpeedMaxMPH,PrecipitationSumIn
2013-1-22,21.6,18.5,16.7,4.8,2.6,0.1,56,49,40,30.45,30.34,15,7,23,0.00
2013-1-23,23.6,18.6,12.9,11.5,3.9,-0.1,67,53,38,30.50,30.35,14,6,23,0.00
2013-1-24,25.8,20.4,15.9,15.2,8.9,2.0,90,62,37,30.66,30.27,16,7,24,0.00
2013-1-25,23.7,19.4,15.1,18.2,10.0,4.5,95,68,49,30.67,30.24,6,2,14,0.00
2013-1-26,29.7,22.3,12.2,19.4,16.2,10.2,95,78,61,30.60,30.24,15,5,20,0.00
2013-1-27,35.8,25.1,14.1,20.3,16.5,10.5,88,71,48,30.76,30.60,7,2,11,0.00
2013-1-28,43.2,35.0,24.3,39.8,31.4,19.3,94,87,76,30.70,30.21,10,5,17,0.01
2013-1-29,57.1,47.5,37.9,49.9,44.2,37.3,99,89,75,30.32,30.18,8,3,12,0.01
2013-1-30,72.0,62.6,51.1,62.1,57.7,48.3,92,84,69,30.18,29.53,22,12,41,0.00
2013-1-31,67.5,47.0,31.0,62.3,32.5,12.7,99,59,34,30.08,29.31,29,16,39,0.55
2013-2-1,30.9,26.7,19.9,27.1,15.0,6.5,96,63,45,30.52,29.99,21,9,32,0.00
2013-2-2,30.0,23.2,12.8,25.4,13.1,6.4,95,66,46,30.55,30.19,9,4,15,0.00
2013-2-3,35.4,28.7,23.9,28.0,24.5,22.4,97,85,64,30.19,29.99,15,2,22,0.02
2013-2-4,33.2,29.3,24.4,27.3,17.8,11.9,87,62,52,30.28,30.07,18,7,25,0.02
2013-2-5,41.4,35.3,30.6,33.2,30.0,24.8,96,81,65,30.10,30.03,6,1,14,0.00
2013-2-6,33.7,33.0,32.1,32.9,32.1,30.8,97,96,96,30.13,30.09,3,2,3,0.00
2013-5-14,60.4,53.7,38.1,47.4,36.0,29.8,88,53,35,30.36,30.23,10,4,14,0.01
2013-5-15,79.5,64.0,50.4,64.5,51.8,-99.9,90,70,56,30.26,29.85,14,-25,22,0.02
2013-5-16,83.2,75.7,67.3,65.1,63.0,60.3,83,65,48,30.02,29.88,12,5,17,0.00
2013-5-17,79.2,70.1,59.6,60.6,52.8,45.4,79,56,36,30.34,30.02,12,3,16,0.00
2013-5-18,71.0,62.8,58.4,60.3,56.4,50.1,99,80,52,30.42,30.34,6,2,10,0.11
2013-5-19,71.6,64.4,59.2,68.2,63.2,58.6,99,96,87,30.39,30.27,6,2,10,0.19
2013-5-20,82.3,72.6,65.6,70.9,68.0,65.0,99,86,66,30.29,30.14,7,4,11,0.00
2013-5-21,82.9,73.9,67.0,72.2,68.7,66.1,98,85,66,30.17,30.05,7,4,13,0.00
2013-5-22,83.2,75.4,69.6,73.9,70.3,68.0,97,85,70,30.10,30.01,10,6,16,0.00
2013-5-23,81.6,74.6,69.7,70.7,68.8,67.7,94,82,68,30.08,29.92,13,7,20,0.00
2013-5-24,69.7,58.9,49.2,67.9,55.0,39.5,100,87,66,30.23,29.88,14,6,22,0.06
2013-12-10,34.7,32.7,30.4,33.9,30.6,21.8,99,92,66,30.87,30.57,8,4,11,0.20
2013-12-11,40.4,31.8,24.8,25.4,22.5,19.7,94,69,50,31.05,30.87,9,3,13,0.01
2013-12-12,30.5,26.5,20.4,24.9,17.0,11.4,95,68,49,31.05,30.89,11,5,16,0.00
2013-12-13,40.7,31.2,20.6,24.5,20.3,14.4,81,65,42,30.98,30.86,12,4,17,0.00
2013-12-14,56.7,38.9,29.2,56.7,35.5,24.3,100,88,71,31.01,30.27,12,3,22,0.61
2013-12-15,56.7,39.4,28.9,56.4,34.2,23.6,99,83,62,30.59,30.23,18,8,28,0.00
2013-12-16,33.9,30.6,26.4,27.7,23.0,18.0,90,74,59,30.87,30.58,11,3,16,0.00
2013-12-17,47.7,36.3,30.6,40.9,32.3,24.0,97,85,71,30.85,30.58,8,3,15,0.02
2013-12-18,38.7,31.4,26.0,30.2,24.9,20.6,96,78,49,30.89,30.59,16,5,25,0.01
2013-12-19,55.6,41.1,26.7,35.2,30.3,22.4,92,68,43,30.88,30.73,11,4,16,0.00
2013-12-20,58.2,52.1,44.7,53.1,42.2,33.2,86,69,57,30.78,30.66,11,6,18,0.00
2013-12-21,67.7,61.3,53.7,62.5,54.2,49.3,89,78,64,30.69,30.58,15,8,24,0.00
2013-12-22,71.8,65.1,61.6,65.7,62.0,59.1,97,90,81,30.69,30.54,16,9,29,0.20
2013-12-23,64.6,57.2,40.8,63.9,55.0,34.0,99,92,77,30.83,30.56,14,6,29,0.24
2013-12-24,40.8,35.7,25.8,34.5,25.4,11.5,82,66,48,31.08,30.79,16,9,24,0.00
2013-12-25,32.8,25.7,20.3,19.8,15.4,12.7,89,66,46,31.20,31.07,10,3,14,0.00
2013-12-26,44.0,29.8,19.0,28.8,23.1,17.0,95,78,48,31.07,30.86,8,2,13,0.00
2013-12-27,47.8,36.0,26.1,30.3,24.0,18.5,90,64,32,31.08,30.96,8,3,13,0.00
2013-12-28,56.2,42.2,31.7,33.5,30.8,26.8,89,66,37,30.98,30.77,9,3,16,0.00
2013-12-29,61.4,46.6,41.6,61.3,42.1,32.6,100,86,56,30.78,30.10,15,6,25,1.00
2013-12-30,49.2,40.2,29.7,41.4,33.7,20.9,95,78,62,30.84,30.46,12,5,17,0.00
2013-12-31,43.7,34.4,28.3,31.1,23.2,19.0,79,64,48,30.95,30.75,14,5,24,0.00
2014-1-1,45.3,37.4,25.1,31.7,27.5,21.2,93,69,50,31.08,30.80,8,2,13,0.00
2014-1-2,37.3,32.5,27.0,36.7,31.6,26.5,99,97,93,30.80,30.20,8,3,13,0.00